createdAt,value
2022-11-02T00:00:40.960Z,100674.75
2022-11-02T00:03:07.820Z,100657.44
2022-11-02T00:05:34.501Z,100663.69
2022-11-02T00:08:00.841Z,100658.78
2022-11-02T00:10:27.307Z,100660.50
2022-11-02T00:12:53.613Z,100647.06
2022-11-02T00:15:19.957Z,100657.41
2022-11-02T00:17:48.745Z,100652.66
2022-11-02T00:20:18.179Z,100654.56
2022-11-02T00:22:46.717Z,100648.97
2022-11-02T00:25:16.321Z,100642.34
2022-11-02T00:27:43.264Z,100639.81
2022-11-02T00:30:10.568Z,100641.44
2022-11-02T00:32:36.894Z,100634.66
2022-11-02T00:35:03.315Z,100634.91
2022-11-02T00:37:29.731Z,100627.38
2022-11-02T00:39:56.089Z,100629.59
2022-11-02T00:42:22.434Z,100632.19
2022-11-02T00:44:48.736Z,100622.97
2022-11-02T00:47:15.064Z,100629.22
2022-11-02T00:49:41.692Z,100632.66
2022-11-02T00:52:08.056Z,100634.50
2022-11-02T00:54:34.368Z,100629.88
2022-11-02T00:59:28.106Z,100623.53
2022-11-02T01:01:54.547Z,100631.81
2022-11-02T01:04:21.202Z,100625.66
2022-11-02T01:06:47.593Z,100618.91
2022-11-02T01:09:15.158Z,100606.34
2022-11-02T01:11:41.749Z,100614.38
2022-11-02T01:14:09.022Z,100614.97
2022-11-02T01:16:35.596Z,100606.50
2022-11-02T01:19:01.975Z,100601.19
2022-11-02T01:21:28.321Z,100595.47
2022-11-02T01:23:55.505Z,100592.13
2022-11-02T01:26:21.812Z,100597.06
2022-11-02T01:28:48.135Z,100590.41
2022-11-02T01:31:15.652Z,100591.03
2022-11-02T01:33:45.845Z,100598.38
2022-11-02T01:36:14.947Z,100591.53
2022-11-02T01:38:41.400Z,100591.81
2022-11-02T01:41:08.092Z,100591.44
2022-11-02T01:43:35.911Z,100596.44
2022-11-02T01:46:12.433Z,100586.47
2022-11-02T01:48:47.729Z,100592.25
2022-11-02T01:51:20.942Z,100581.66
2022-11-02T01:53:50.274Z,100572.66
2022-11-02T01:56:20.505Z,100585.19
2022-11-02T01:58:51.893Z,100584.34
2022-11-02T02:01:18.252Z,100582.00
2022-11-02T02:03:45.877Z,100584.13
2022-11-02T02:06:15.051Z,100578.47
2022-11-02T02:08:48.452Z,100582.31
2022-11-02T02:11:43.966Z,100581.47
2022-11-02T02:14:14.805Z,100573.84
2022-11-02T02:17:18.636Z,100568.59
2022-11-02T02:19:58.278Z,100569.63
2022-11-02T02:22:45.561Z,100581.59
2022-11-02T02:25:17.993Z,100575.84
2022-11-02T02:27:56.159Z,100571.72
2022-11-02T02:30:22.760Z,100570.66
2022-11-02T02:32:55.836Z,100574.25
2022-11-02T02:35:35.446Z,100571.00
2022-11-02T02:38:05.157Z,100567.28
2022-11-02T02:40:37.168Z,100560.94
2022-11-02T02:43:25.956Z,100564.97
2022-11-02T02:45:58.481Z,100564.97
2022-11-02T02:48:26.753Z,100569.00
2022-11-02T02:51:02.315Z,100559.91
2022-11-02T02:53:34.083Z,100566.44
2022-11-02T02:56:02.146Z,100566.72
2022-11-02T02:58:39.516Z,100555.72
2022-11-02T03:01:07.964Z,100559.78
2022-11-02T03:03:35.141Z,100555.91
2022-11-02T03:06:17.731Z,100558.38
2022-11-02T03:08:51.952Z,100560.16
2022-11-02T03:11:20.513Z,100562.03
2022-11-02T03:14:00.441Z,100556.31
2022-11-02T03:16:51.157Z,100566.44
2022-11-02T03:19:23.296Z,100555.00
2022-11-02T03:22:02.379Z,100548.66
2022-11-02T03:24:46.188Z,100555.03
2022-11-02T03:27:22.329Z,100549.25
2022-11-02T03:30:00.435Z,100551.75
2022-11-02T03:32:31.392Z,100550.41
2022-11-02T03:35:02.727Z,100554.00
2022-11-02T03:37:37.821Z,100550.19
2022-11-02T03:40:16.788Z,100548.63
2022-11-02T03:42:44.082Z,100552.00
2022-11-02T03:45:14.797Z,100551.50
2022-11-02T03:47:45.973Z,100557.09
2022-11-02T03:50:15.058Z,100554.81
2022-11-02T03:52:45.107Z,100561.22
2022-11-02T03:55:28.387Z,100566.78
2022-11-02T03:57:54.901Z,100570.09
2022-11-02T04:00:24.233Z,100577.81
2022-11-02T04:02:55.867Z,100581.56
2022-11-02T04:05:36.105Z,100587.41
2022-11-02T04:08:03.633Z,100595.88
2022-11-02T04:10:30.321Z,100601.59
2022-11-02T04:12:56.633Z,100598.00
2022-11-02T04:15:22.924Z,100600.78
2022-11-02T04:17:49.260Z,100599.25
2022-11-02T04:20:15.753Z,100601.09
2022-11-02T04:22:42.074Z,100599.66
2022-11-02T04:25:13.864Z,100605.28
2022-11-02T04:27:40.282Z,100605.78
2022-11-02T04:30:07.297Z,100608.94
2022-11-02T04:32:41.661Z,100609.13
2022-11-02T04:35:08.645Z,100611.56
2022-11-02T04:37:42.105Z,100612.97
2022-11-02T04:40:08.915Z,100612.09
2022-11-02T04:42:35.217Z,100610.91
2022-11-02T04:45:01.540Z,100617.81
2022-11-02T04:47:27.830Z,100618.63
2022-11-02T04:49:54.140Z,100614.28
2022-11-02T04:52:20.486Z,100616.94
2022-11-02T04:54:46.799Z,100625.09
2022-11-02T04:57:13.109Z,100611.41
2022-11-02T04:59:39.419Z,100618.88
2022-11-02T05:02:05.891Z,100616.56
2022-11-02T05:04:32.308Z,100621.91
2022-11-02T05:07:01.390Z,100618.00
2022-11-02T05:09:28.226Z,100614.84
2022-11-02T05:11:54.520Z,100611.41
2022-11-02T05:14:20.829Z,100624.53
2022-11-02T05:16:47.150Z,100610.13
2022-11-02T05:19:13.469Z,100613.66
2022-11-02T05:21:39.806Z,100613.53
2022-11-02T05:24:06.716Z,100612.78
2022-11-02T05:26:33.109Z,100609.78
2022-11-02T05:28:59.441Z,100613.09
2022-11-02T05:31:25.748Z,100619.28
2022-11-02T05:33:52.071Z,100624.19
2022-11-02T05:36:18.369Z,100625.31
2022-11-02T05:38:44.701Z,100620.28
2022-11-02T05:41:11.284Z,100611.97
2022-11-02T05:43:37.799Z,100620.53
2022-11-02T05:46:04.918Z,100619.53
2022-11-02T05:48:32.543Z,100619.53
2022-11-02T05:51:00.875Z,100620.06
2022-11-02T05:53:28.706Z,100622.28
2022-11-02T05:55:59.276Z,100623.63
2022-11-02T05:58:26.514Z,100624.44
2022-11-02T06:00:53.340Z,100623.84
2022-11-02T06:03:20.440Z,100624.78
2022-11-02T06:05:46.846Z,100634.97
2022-11-02T06:08:13.204Z,100638.41
2022-11-02T06:10:39.525Z,100636.75
2022-11-02T06:13:05.967Z,100637.78
2022-11-02T06:15:32.468Z,100644.22
2022-11-02T06:17:58.815Z,100639.78
2022-11-02T06:20:25.164Z,100649.84
2022-11-02T06:22:51.482Z,100651.47
2022-11-02T06:25:17.908Z,100657.88
2022-11-02T06:27:50.888Z,100655.47
2022-11-02T06:30:17.269Z,100655.88
2022-11-02T06:32:51.519Z,100663.81
2022-11-02T06:35:19.729Z,100672.16
2022-11-02T06:37:46.760Z,100679.72
2022-11-02T06:40:14.552Z,100690.28
2022-11-02T06:42:45.164Z,100694.56
2022-11-02T06:47:56.803Z,100691.84
2022-11-02T06:50:23.358Z,100702.41
2022-11-02T06:52:49.677Z,100710.69
2022-11-02T06:55:16.782Z,100702.25
2022-11-02T06:57:43.682Z,100705.28
2022-11-02T07:00:15.423Z,100719.63
2022-11-02T07:02:44.969Z,100731.50
2022-11-02T07:05:11.947Z,100725.78
2022-11-02T07:07:38.433Z,100737.63
2022-11-02T07:10:05.390Z,100730.56
2022-11-02T07:12:32.744Z,100736.44
2022-11-02T07:14:59.072Z,100733.19
2022-11-02T07:17:31.035Z,100746.53
2022-11-02T07:19:58.426Z,100733.72
2022-11-02T07:22:24.738Z,100740.69
2022-11-02T07:24:51.024Z,100745.91
2022-11-02T07:27:17.347Z,100749.44
2022-11-02T07:29:43.633Z,100752.38
2022-11-02T07:32:09.969Z,100753.28
2022-11-02T07:34:36.310Z,100770.53
2022-11-02T07:37:02.633Z,100766.78
2022-11-02T07:39:28.925Z,100769.31
2022-11-02T07:41:55.297Z,100764.88
2022-11-02T07:44:21.682Z,100766.09
2022-11-02T07:46:47.997Z,100776.59
2022-11-02T07:49:20.222Z,100777.38
2022-11-02T07:51:47.729Z,100774.94
2022-11-02T07:54:14.073Z,100789.84
2022-11-02T07:56:40.492Z,100799.56
2022-11-02T07:59:06.828Z,100798.13
2022-11-02T08:01:33.165Z,100784.44
2022-11-02T08:03:59.513Z,100787.78
2022-11-02T08:06:25.921Z,100787.09
2022-11-02T08:08:52.212Z,100792.72
2022-11-02T08:11:18.505Z,100799.41
2022-11-02T08:13:44.837Z,100799.81
2022-11-02T08:16:11.197Z,100807.97
2022-11-02T08:18:37.496Z,100811.91
2022-11-02T08:21:03.982Z,100814.75
2022-11-02T08:23:30.291Z,100803.84
2022-11-02T08:25:58.991Z,100808.16
2022-11-02T08:28:28.486Z,100808.06
2022-11-02T08:30:54.788Z,100813.09
2022-11-02T08:33:21.478Z,100814.22
2022-11-02T08:35:48.505Z,100825.94
2022-11-02T08:38:15.036Z,100837.03
2022-11-02T08:40:41.950Z,100830.06
2022-11-02T08:43:13.518Z,100824.50
2022-11-02T08:46:13.235Z,100833.31
2022-11-02T08:48:28.707Z,100843.41
2022-11-02T08:50:55.097Z,100847.44
2022-11-02T08:53:21.741Z,100858.34
2022-11-02T08:55:48.080Z,100850.47
2022-11-02T08:58:14.432Z,100856.31
2022-11-02T09:00:40.739Z,100860.84
2022-11-02T09:03:09.117Z,100842.19
2022-11-02T09:05:37.720Z,100857.22
2022-11-02T09:08:11.213Z,100846.81
2022-11-02T09:10:37.866Z,100847.81
2022-11-02T09:13:07.179Z,100856.38
2022-11-02T09:15:36.189Z,100853.19
2022-11-02T09:18:03.582Z,100850.03
2022-11-02T09:20:30.519Z,100869.31
2022-11-02T09:22:56.867Z,100871.66
2022-11-02T09:25:23.533Z,100870.56
2022-11-02T09:27:57.483Z,100873.06
2022-11-02T09:30:24.963Z,100877.94
2022-11-02T09:32:59.503Z,100881.53
2022-11-02T09:35:28.315Z,100901.34
2022-11-02T09:37:54.749Z,100901.53
2022-11-02T09:40:23.665Z,100898.91
2022-11-02T09:43:05.461Z,100897.50
2022-11-02T09:45:36.681Z,100914.66
2022-11-02T09:48:24.914Z,100916.38
2022-11-02T09:51:28.396Z,100913.22
2022-11-02T09:54:22.514Z,100907.06
2022-11-02T09:56:51.332Z,100913.53
2022-11-02T09:59:24.397Z,100907.78
2022-11-02T10:02:24.490Z,100920.41
2022-11-02T10:05:24.677Z,100935.53
2022-11-02T10:07:56.860Z,100936.97
2022-11-02T10:10:23.127Z,100936.34
2022-11-02T10:13:28.071Z,100938.84
2022-11-02T10:16:02.925Z,100942.81
2022-11-02T10:18:29.870Z,100947.31
2022-11-02T10:20:59.298Z,100948.19
2022-11-02T10:23:47.470Z,100949.03
2022-11-02T10:26:19.447Z,100969.84
2022-11-02T10:28:49.163Z,100954.25
2022-11-02T10:31:33.599Z,100966.50
2022-11-02T10:34:18.016Z,100958.72
2022-11-02T10:36:54.593Z,100966.78
2022-11-02T10:39:42.257Z,100955.38
2022-11-02T10:42:39.618Z,100967.19
2022-11-02T10:45:20.412Z,100967.50
2022-11-02T10:48:03.162Z,100975.56
2022-11-02T10:50:29.730Z,100968.97
2022-11-02T10:53:20.435Z,100969.72
2022-11-02T10:55:54.931Z,100988.72
2022-11-02T10:58:23.022Z,100980.47
2022-11-02T11:00:49.512Z,100985.53
2022-11-02T11:03:17.753Z,100973.31
2022-11-02T11:05:55.310Z,100975.75
2022-11-02T11:08:29.090Z,100985.25
2022-11-02T11:10:55.476Z,100977.72
2022-11-02T11:16:14.399Z,100997.88
2022-11-02T11:21:40.446Z,101011.25
2022-11-02T11:24:20.588Z,101004.63
2022-11-02T11:27:03.646Z,101020.94
2022-11-02T11:29:32.721Z,101020.94
2022-11-02T11:32:01.166Z,101025.72
2022-11-02T11:34:30.234Z,101021.44
2022-11-02T11:37:26.070Z,101015.78
2022-11-02T11:39:57.459Z,101020.13
2022-11-02T11:42:27.115Z,101014.28
2022-11-02T11:45:02.866Z,101021.94
2022-11-02T11:47:34.180Z,101029.00
2022-11-02T11:50:13.522Z,101030.75
2022-11-02T11:52:44.054Z,101016.97
2022-11-02T11:55:25.148Z,101025.00
2022-11-02T11:58:33.076Z,101024.41
2022-11-02T12:01:09.325Z,101030.78
2022-11-02T12:04:00.276Z,101025.75
2022-11-02T12:06:35.025Z,101016.00
2022-11-02T12:09:40.930Z,101021.25
2022-11-02T12:12:13.983Z,101009.00
2022-11-02T12:15:06.970Z,101015.69
2022-11-02T12:17:45.700Z,101013.97
2022-11-02T12:20:37.866Z,101013.09
2022-11-02T12:23:13.358Z,101016.22
2022-11-02T12:26:04.831Z,101017.81
2022-11-02T12:29:01.184Z,101017.31
2022-11-02T12:31:38.392Z,101025.13
2022-11-02T12:34:57.636Z,101021.66
2022-11-02T12:37:48.520Z,101023.28
2022-11-02T12:40:20.950Z,101026.97
2022-11-02T12:43:09.134Z,101033.34
2022-11-02T12:45:49.901Z,101024.75
2022-11-02T12:48:29.271Z,101033.13
2022-11-02T12:51:08.094Z,101030.00
2022-11-02T12:53:49.253Z,101030.06
2022-11-02T12:56:23.097Z,101033.69
2022-11-02T12:58:49.719Z,101021.16
2022-11-02T13:01:20.558Z,101030.59
2022-11-02T13:03:53.189Z,101025.47
2022-11-02T13:06:24.772Z,101028.03
2022-11-02T13:09:00.461Z,101027.78
2022-11-02T13:11:36.746Z,101027.72
2022-11-02T13:14:14.339Z,101027.56
2022-11-02T13:16:54.724Z,101025.78
2022-11-02T13:19:49.180Z,101028.22
2022-11-02T13:22:18.224Z,101027.94
2022-11-02T13:24:50.368Z,101028.47
2022-11-02T13:27:38.825Z,101029.31
2022-11-02T13:30:14.897Z,101026.09
2022-11-02T13:33:16.878Z,101025.78
2022-11-02T13:35:43.255Z,101039.00
2022-11-02T13:38:12.689Z,101027.50
2022-11-02T13:40:49.538Z,101035.19
2022-11-02T13:43:24.997Z,101037.97
2022-11-02T13:46:06.653Z,101039.84
2022-11-02T13:48:51.982Z,101039.28
2022-11-02T13:51:18.247Z,101046.81
2022-11-02T13:53:57.847Z,101043.38
2022-11-02T13:56:27.438Z,101054.50
2022-11-02T13:58:57.964Z,101059.84
2022-11-02T14:01:26.252Z,101057.22
2022-11-02T14:04:02.560Z,101057.94
2022-11-02T14:06:31.730Z,101051.50
2022-11-02T14:09:00.975Z,101054.44
2022-11-02T14:11:36.639Z,101056.09
2022-11-02T14:14:02.943Z,101052.78
2022-11-02T14:16:48.338Z,101054.50
2022-11-02T14:19:20.391Z,101046.00
2022-11-02T14:21:59.105Z,101046.44
2022-11-02T14:24:34.633Z,101047.25
2022-11-02T14:27:22.346Z,101043.28
2022-11-02T14:29:53.940Z,101042.00
2022-11-02T14:32:20.212Z,101042.59
2022-11-02T14:35:13.406Z,101035.66
2022-11-02T14:38:16.505Z,101044.63
2022-11-02T14:40:48.950Z,101048.16
2022-11-02T14:43:43.183Z,101047.19
2022-11-02T14:46:31.229Z,101041.94
2022-11-02T14:48:59.812Z,101045.34
2022-11-02T14:51:29.938Z,101052.03
2022-11-02T14:54:03.101Z,101052.25
2022-11-02T14:57:04.618Z,101048.16
2022-11-02T14:59:38.427Z,101050.47
2022-11-02T15:02:13.123Z,101045.41
2022-11-02T15:04:48.605Z,101050.50
2022-11-02T15:07:22.445Z,101045.78
2022-11-02T15:09:59.601Z,101040.53
2022-11-02T15:12:38.376Z,101037.63
2022-11-02T15:15:04.629Z,101040.50
2022-11-02T15:17:30.891Z,101035.91
2022-11-02T15:20:15.378Z,101044.91
2022-11-02T15:22:45.529Z,101044.38
2022-11-02T15:25:24.038Z,101044.13
2022-11-02T15:27:52.345Z,101047.09
2022-11-02T15:30:28.013Z,101047.81
2022-11-02T15:33:05.567Z,101048.25
2022-11-02T15:35:38.033Z,101049.06
2022-11-02T15:38:28.079Z,101050.03
2022-11-02T15:41:07.788Z,101049.38
2022-11-02T15:43:47.870Z,101045.91
2022-11-02T15:46:52.308Z,101039.97
2022-11-02T15:49:30.550Z,101041.56
2022-11-02T15:52:12.208Z,101048.44
2022-11-02T15:55:03.462Z,101045.31
2022-11-02T15:57:51.593Z,101031.63
2022-11-02T16:00:22.149Z,101031.94
2022-11-02T16:02:52.669Z,101029.31
2022-11-02T16:05:22.875Z,101030.72
2022-11-02T16:08:10.452Z,101029.50
2022-11-02T16:10:37.515Z,101039.88
2022-11-02T16:13:10.013Z,101031.81
2022-11-02T16:15:36.681Z,101032.94
2022-11-02T16:18:03.379Z,101038.16
2022-11-02T16:20:34.511Z,101043.13
2022-11-02T16:23:03.339Z,101042.59
2022-11-02T16:25:36.862Z,101034.81
2022-11-02T16:28:25.888Z,101046.53
2022-11-02T16:31:10.073Z,101041.44
2022-11-02T16:33:44.078Z,101041.75
2022-11-02T16:36:15.358Z,101039.06
2022-11-02T16:38:52.296Z,101042.66
2022-11-02T16:41:19.025Z,101043.75
2022-11-02T16:43:46.209Z,101044.56
2022-11-02T16:46:15.518Z,101042.16
2022-11-02T16:49:01.428Z,101044.09
2022-11-02T16:51:27.780Z,101048.97
2022-11-02T16:53:54.165Z,101055.47
2022-11-02T16:56:27.245Z,101051.72
2022-11-02T16:59:02.733Z,101049.00
2022-11-02T17:01:38.552Z,101044.94
2022-11-02T17:04:23.626Z,101054.72
2022-11-02T17:06:53.874Z,101052.81
2022-11-02T17:09:31.142Z,101057.13
2022-11-02T17:12:15.843Z,101055.53
2022-11-02T17:14:44.570Z,101057.16
2022-11-02T17:17:40.186Z,101058.78
2022-11-02T17:20:12.378Z,101060.97
2022-11-02T17:22:47.973Z,101059.06
2022-11-02T17:25:30.422Z,101058.53
2022-11-02T17:28:02.908Z,101057.19
2022-11-02T17:30:29.414Z,101062.59
2022-11-02T17:32:57.182Z,101052.28
2022-11-02T17:35:27.256Z,101059.03
2022-11-02T17:37:54.000Z,101063.38
2022-11-02T17:40:20.404Z,101062.00
2022-11-02T17:42:46.742Z,101062.56
2022-11-02T17:45:24.555Z,101063.66
2022-11-02T17:47:51.759Z,101067.41
2022-11-02T17:50:18.832Z,101054.72
2022-11-02T17:52:45.570Z,101054.44
2022-11-02T17:55:17.844Z,101057.91
2022-11-02T17:57:44.938Z,101053.84
2022-11-02T18:00:11.854Z,101046.25
2022-11-02T18:02:40.376Z,101049.47
2022-11-02T18:05:29.931Z,101040.81
2022-11-02T18:07:57.763Z,101043.78
2022-11-02T18:10:37.110Z,101046.75
2022-11-02T18:13:04.403Z,101044.84
2022-11-02T18:15:33.084Z,101041.31
2022-11-02T18:17:59.675Z,101030.19
2022-11-02T18:20:27.849Z,101041.53
2022-11-02T18:22:55.499Z,101034.53
2022-11-02T18:27:53.252Z,101036.94
2022-11-02T18:30:19.677Z,101041.00
2022-11-02T18:32:46.833Z,101037.47
2022-11-02T18:35:17.185Z,101036.41
2022-11-02T18:37:44.407Z,101034.47
2022-11-02T18:40:13.336Z,101034.72
2022-11-02T18:42:42.432Z,101039.56
2022-11-02T18:45:10.591Z,101033.09
2022-11-02T18:47:37.309Z,101021.50
2022-11-02T18:50:05.876Z,101019.91
2022-11-02T18:52:32.842Z,101026.91
2022-11-02T18:54:59.790Z,101027.72
2022-11-02T18:57:28.182Z,101028.56
2022-11-02T18:59:54.815Z,101019.66
2022-11-02T19:02:21.193Z,101016.16
2022-11-02T19:04:47.553Z,101020.78
2022-11-02T19:07:16.280Z,101014.31
2022-11-02T19:09:42.965Z,101018.66
2022-11-02T19:12:13.397Z,101018.94
2022-11-02T19:14:44.780Z,101011.63
2022-11-02T19:17:12.909Z,101015.16
2022-11-02T19:19:39.645Z,101005.19
2022-11-02T19:22:06.492Z,101003.03
2022-11-02T19:24:33.194Z,100993.56
2022-11-02T19:26:59.620Z,100988.91
2022-11-02T19:29:25.922Z,100985.13
2022-11-02T19:31:52.248Z,100985.91
2022-11-02T19:34:18.552Z,100980.22
2022-11-02T19:36:44.870Z,100976.69
2022-11-02T19:39:11.311Z,100982.09
2022-11-02T19:41:38.528Z,100981.00
2022-11-02T19:44:05.434Z,100975.88
2022-11-02T19:46:31.891Z,100976.38
2022-11-02T19:48:58.603Z,100976.38
2022-11-02T19:51:27.247Z,100970.41
2022-11-02T19:53:56.139Z,100961.78
2022-11-02T19:56:22.824Z,100960.13
2022-11-02T19:58:51.177Z,100963.41
2022-11-02T20:01:24.341Z,100967.75
2022-11-02T20:03:51.749Z,100970.47
2022-11-02T20:06:21.159Z,100974.78
2022-11-02T20:08:54.486Z,100972.06
2022-11-02T20:11:21.589Z,100967.22
2022-11-02T20:13:48.773Z,100966.41
2022-11-02T20:16:17.862Z,100965.84
2022-11-02T20:18:45.750Z,100962.03
2022-11-02T20:21:15.026Z,100964.44
2022-11-02T20:23:42.562Z,100963.91
2022-11-02T20:26:14.622Z,100967.72
2022-11-02T20:28:43.443Z,100964.75
2022-11-02T20:31:13.613Z,100970.97
2022-11-02T20:33:40.463Z,100961.78
2022-11-02T20:36:07.968Z,100959.06
2022-11-02T20:38:34.770Z,100967.50
2022-11-02T20:41:13.256Z,100963.69
2022-11-02T20:43:41.878Z,100961.78
2022-11-02T20:48:56.781Z,100946.63
2022-11-02T20:51:23.974Z,100942.28
2022-11-02T20:53:50.582Z,100938.75
2022-11-02T20:56:17.518Z,100931.44
2022-11-02T20:58:48.906Z,100935.22
2022-11-02T21:01:17.718Z,100931.75
2022-11-02T21:03:44.489Z,100927.13
2022-11-02T21:06:10.922Z,100922.81
2022-11-02T21:08:37.380Z,100916.56
2022-11-02T21:11:04.783Z,100917.13
2022-11-02T21:13:31.108Z,100920.66
2022-11-02T21:16:03.163Z,100923.38
2022-11-02T21:18:32.284Z,100912.28
2022-11-02T21:21:24.641Z,100913.13
2022-11-02T21:23:50.954Z,100910.94
2022-11-02T21:26:17.583Z,100906.63
2022-11-02T21:28:44.106Z,100899.03
2022-11-02T21:31:12.998Z,100889.81
2022-11-02T21:33:39.296Z,100896.84
2022-11-02T21:36:05.938Z,100900.41
2022-11-02T21:38:32.976Z,100895.75
2022-11-02T21:41:01.005Z,100895.72
2022-11-02T21:43:28.362Z,100892.75
2022-11-02T21:46:00.679Z,100892.97
2022-11-02T21:48:32.444Z,100896.22
2022-11-02T21:51:12.637Z,100889.69
2022-11-02T21:53:42.577Z,100874.53
2022-11-02T21:56:16.375Z,100879.94
2022-11-02T21:58:45.906Z,100881.84
2022-11-02T22:01:21.637Z,100879.38
2022-11-02T22:03:48.680Z,100878.88
2022-11-02T22:06:15.306Z,100885.38
2022-11-02T22:08:41.971Z,100887.00
2022-11-02T22:11:14.012Z,100883.38
2022-11-02T22:13:41.623Z,100880.91
2022-11-02T22:16:16.715Z,100865.50
2022-11-02T22:18:44.486Z,100869.03
2022-11-02T22:21:12.526Z,100865.47
2022-11-02T22:23:39.701Z,100855.16
2022-11-02T22:26:08.410Z,100852.94
2022-11-02T22:28:38.305Z,100852.59
2022-11-02T22:31:25.854Z,100846.50
2022-11-02T22:33:54.571Z,100848.69
2022-11-02T22:36:23.348Z,100842.28
2022-11-02T22:38:51.167Z,100839.59
2022-11-02T22:41:24.635Z,100839.03
2022-11-02T22:43:53.637Z,100837.41
2022-11-02T22:46:23.420Z,100833.66
2022-11-02T22:48:54.837Z,100827.63
2022-11-02T22:51:22.904Z,100832.41
2022-11-02T22:53:49.819Z,100827.03
2022-11-02T22:56:18.120Z,100834.09
2022-11-02T22:58:45.925Z,100830.81
2022-11-02T23:01:15.351Z,100818.94
2022-11-02T23:03:42.830Z,100821.25
2022-11-02T23:06:09.994Z,100818.09
2022-11-02T23:08:42.138Z,100812.06
2022-11-02T23:11:10.298Z,100807.44
2022-11-02T23:13:36.620Z,100802.84
2022-11-02T23:16:05.238Z,100807.06
2022-11-02T23:18:31.567Z,100803.84
2022-11-02T23:20:57.869Z,100801.97
2022-11-02T23:23:24.174Z,100797.91
2022-11-02T23:25:57.401Z,100786.50
2022-11-02T23:30:54.860Z,100793.44
2022-11-02T23:33:23.024Z,100789.66
2022-11-02T23:35:49.725Z,100790.66
2022-11-02T23:38:16.057Z,100792.09
2022-11-02T23:40:42.394Z,100787.78
2022-11-02T23:43:08.766Z,100783.97
2022-11-02T23:45:35.469Z,100783.09
2022-11-02T23:48:08.744Z,100780.97
2022-11-02T23:50:35.814Z,100776.09
2022-11-02T23:53:03.450Z,100775.38
2022-11-02T23:55:30.014Z,100770.97
2022-11-02T23:57:56.336Z,100763.97
